Ackerly, Texas
Current Conditions -  °F | °C
As of 1:35 AM on Sunday 23 Nov 2014 (Local Time) from KBPG Reporting Station
Clear Clear  
Wind Chill:   Ceiling: Unl
Heat Index:   Visibility: 10mi
Dew Point:   Wind: 7mph
Humidity: 86%   Direction: 180°S
Pressure: 29.7"   Gusts: NA
Location:  32.53°N, 101.72°W
Report Text: KBPG 230735Z AUTO 18006KT 10SM CLR 09/06 A2970 RMK AO2 T00850063
Loading
Personal Weather Stations






























Interactive Weather Map New forecast layout! Learn more

10-Day Weather Forecast

Advertisements
Track Severe Weather on mobile